sensor_id;sensor_type;location;lat;lon;timestamp;pressure;altitude;pressure_sealevel;temperature;humidity
5283;BME280;15376;48.540;9.268;2023-07-13T00:01:46;97436.59;;;19.78;100.00
5283;BME280;15376;48.540;9.268;2023-07-13T00:04:19;97461.22;;;19.98;100.00
5283;BME280;15376;48.540;9.268;2023-07-13T00:06:45;97434.88;;;19.72;100.00
5283;BME280;15376;48.540;9.268;2023-07-13T00:09:13;97460.47;;;20.03;100.00
5283;BME280;15376;48.540;9.268;2023-07-13T00:11:39;97456.81;;;19.92;99.35
5283;BME280;15376;48.540;9.268;2023-07-13T00:14:05;97424.00;;;19.67;98.29
5283;BME280;15376;48.540;9.268;2023-07-13T00:16:30;97454.94;;;19.92;98.88
5283;BME280;15376;48.540;9.268;2023-07-13T00:18:55;97444.69;;;19.78;96.17
5283;BME280;15376;48.540;9.268;2023-07-13T00:21:21;97377.91;;;19.23;95.37
5283;BME280;15376;48.540;9.268;2023-07-13T00:23:46;97449.75;;;19.74;97.49
5283;BME280;15376;48.540;9.268;2023-07-13T00:26:12;97465.78;;;19.81;98.82
5283;BME280;15376;48.540;9.268;2023-07-13T00:28:38;97437.06;;;19.58;100.00
5283;BME280;15376;48.540;9.268;2023-07-13T00:31:04;97362.78;;;19.05;100.00
5283;BME280;15376;48.540;9.268;2023-07-13T00:33:30;97439.44;;;19.43;100.00
5283;BME280;15376;48.540;9.268;2023-07-13T00:35:55;97459.16;;;19.60;100.00
5283;BME280;15376;48.540;9.268;2023-07-13T00:38:22;97460.16;;;19.54;99.52
5283;BME280;15376;48.540;9.268;2023-07-13T00:40:47;97447.19;;;19.39;99.84
5283;BME280;15376;48.540;9.268;2023-07-13T00:43:16;97469.75;;;19.50;99.23
5283;BME280;15376;48.540;9.268;2023-07-13T00:48:11;97453.41;;;19.28;97.98
5283;BME280;15376;48.540;9.268;2023-07-13T00:50:38;97451.88;;;19.32;99.34
5283;BME280;15376;48.540;9.268;2023-07-13T00:53:05;97438.78;;;19.24;100.00
5283;BME280;15376;48.540;9.268;2023-07-13T00:55:30;97454.28;;;19.17;99.92
5283;BME280;15376;48.540;9.268;2023-07-13T00:57:56;97433.50;;;19.01;100.00
5283;BME280;15376;48.540;9.268;2023-07-13T01:00:22;97467.28;;;19.08;100.00
5283;BME280;15376;48.540;9.268;2023-07-13T01:02:48;97447.31;;;18.92;100.00
5283;BME280;15376;48.540;9.268;2023-07-13T01:05:17;97486.50;;;19.12;100.00
5283;BME280;15376;48.540;9.268;2023-07-13T01:07:44;97458.88;;;18.93;100.00
5283;BME280;15376;48.540;9.268;2023-07-13T01:10:12;97500.25;;;19.27;100.00
5283;BME280;15376;48.540;9.268;2023-07-13T01:12:38;97421.81;;;18.83;100.00
5283;BME280;15376;48.540;9.268;2023-07-13T01:15:04;97492.16;;;19.27;100.00
5283;BME280;15376;48.540;9.268;2023-07-13T01:17:33;97482.34;;;19.21;100.00
5283;BME280;15376;48.540;9.268;2023-07-13T01:19:59;97428.34;;;18.87;100.00
5283;BME280;15376;48.540;9.268;2023-07-13T01:22:25;97464.47;;;19.15;100.00
5283;BME280;15376;48.540;9.268;2023-07-13T01:24:52;97481.63;;;19.37;100.00
5283;BME280;15376;48.540;9.268;2023-07-13T01:27:22;97481.25;;;19.33;100.00
5283;BME280;15376;48.540;9.268;2023-07-13T01:29:51;97483.72;;;19.35;100.00
5283;BME280;15376;48.540;9.268;2023-07-13T01:32:19;97481.25;;;19.33;100.00
5283;BME280;15376;48.540;9.268;2023-07-13T01:34:48;97477.66;;;19.28;100.00
5283;BME280;15376;48.540;9.268;2023-07-13T01:37:13;97455.13;;;19.06;100.00
5283;BME280;15376;48.540;9.268;2023-07-13T01:39:39;97468.59;;;19.06;100.00
5283;BME280;15376;48.540;9.268;2023-07-13T01:42:04;97451.66;;;18.82;100.00
5283;BME280;15376;48.540;9.268;2023-07-13T01:44:30;97477.03;;;18.97;100.00
5283;BME280;15376;48.540;9.268;2023-07-13T01:46:55;97467.31;;;18.96;100.00
5283;BME280;15376;48.540;9.268;2023-07-13T01:49:21;97454.44;;;18.87;100.00
5283;BME280;15376;48.540;9.268;2023-07-13T01:51:46;97439.25;;;18.81;100.00
5283;BME280;15376;48.540;9.268;2023-07-13T01:54:12;97478.88;;;19.09;100.00
5283;BME280;15376;48.540;9.268;2023-07-13T01:56:37;97503.41;;;19.24;100.00
5283;BME280;15376;48.540;9.268;2023-07-13T01:59:02;97494.75;;;19.22;100.00
5283;BME280;15376;48.540;9.268;2023-07-13T02:01:28;97499.47;;;19.15;100.00
5283;BME280;15376;48.540;9.268;2023-07-13T02:03:53;97467.44;;;18.90;100.00
5283;BME280;15376;48.540;9.268;2023-07-13T02:06:18;97460.53;;;18.94;100.00
5283;BME280;15376;48.540;9.268;2023-07-13T02:08:44;97477.25;;;19.08;100.00
5283;BME280;15376;48.540;9.268;2023-07-13T02:11:09;97480.75;;;19.08;100.00
5283;BME280;15376;48.540;9.268;2023-07-13T02:13:34;97471.63;;;18.97;100.00
5283;BME280;15376;48.540;9.268;2023-07-13T02:16:00;97484.28;;;19.09;100.00
5283;BME280;15376;48.540;9.268;2023-07-13T02:18:25;97485.34;;;18.96;100.00
5283;BME280;15376;48.540;9.268;2023-07-13T02:20:51;97510.97;;;18.98;100.00
5283;BME280;15376;48.540;9.268;2023-07-13T02:23:16;97480.34;;;18.76;100.00
5283;BME280;15376;48.540;9.268;2023-07-13T02:25:41;97491.69;;;18.78;100.00
5283;BME280;15376;48.540;9.268;2023-07-13T02:28:07;97504.88;;;18.91;100.00
5283;BME280;15376;48.540;9.268;2023-07-13T02:30:33;97470.28;;;18.72;100.00
5283;BME280;15376;48.540;9.268;2023-07-13T02:32:59;97459.63;;;18.65;100.00
5283;BME280;15376;48.540;9.268;2023-07-13T02:35:24;97503.59;;;18.94;100.00
5283;BME280;15376;48.540;9.268;2023-07-13T02:37:49;97468.53;;;18.65;100.00
5283;BME280;15376;48.540;9.268;2023-07-13T02:40:15;97495.44;;;18.65;100.00
5283;BME280;15376;48.540;9.268;2023-07-13T02:42:41;97469.53;;;18.53;100.00
5283;BME280;15376;48.540;9.268;2023-07-13T02:45:07;97491.56;;;18.73;100.00
5283;BME280;15376;48.540;9.268;2023-07-13T02:47:34;97504.75;;;18.86;100.00
5283;BME280;15376;48.540;9.268;2023-07-13T02:50:00;97493.78;;;18.76;100.00
5283;BME280;15376;48.540;9.268;2023-07-13T02:52:26;97482.53;;;18.56;100.00
5283;BME280;15376;48.540;9.268;2023-07-13T02:54:51;97480.03;;;18.43;100.00
5283;BME280;15376;48.540;9.268;2023-07-13T02:57:17;97468.84;;;18.34;100.00
5283;BME280;15376;48.540;9.268;2023-07-13T02:59:42;97442.50;;;18.13;100.00
5283;BME280;15376;48.540;9.268;2023-07-13T03:02:07;97451.78;;;18.28;100.00
5283;BME280;15376;48.540;9.268;2023-07-13T03:04:35;97500.06;;;18.35;100.00
5283;BME280;15376;48.540;9.268;2023-07-13T03:07:00;97473.25;;;18.17;100.00
5283;BME280;15376;48.540;9.268;2023-07-13T03:09:26;97467.16;;;17.98;100.00
5283;BME280;15376;48.540;9.268;2023-07-13T03:11:54;97498.69;;;18.03;100.00
5283;BME280;15376;48.540;9.268;2023-07-13T03:14:21;97486.44;;;18.07;100.00
5283;BME280;15376;48.540;9.268;2023-07-13T03:16:47;97505.88;;;18.20;100.00
5283;BME280;15376;48.540;9.268;2023-07-13T03:19:12;97479.28;;;17.89;100.00
5283;BME280;15376;48.540;9.268;2023-07-13T03:21:37;97481.88;;;17.95;100.00
5283;BME280;15376;48.540;9.268;2023-07-13T03:24:03;97473.19;;;17.82;100.00
5283;BME280;15376;48.540;9.268;2023-07-13T03:26:28;97484.19;;;17.92;100.00
5283;BME280;15376;48.540;9.268;2023-07-13T03:28:53;97453.41;;;17.76;100.00
5283;BME280;15376;48.540;9.268;2023-07-13T03:31:22;97516.84;;;18.19;100.00
5283;BME280;15376;48.540;9.268;2023-07-13T03:33:49;97501.69;;;18.24;100.00
5283;BME280;15376;48.540;9.268;2023-07-13T03:36:17;97510.78;;;18.23;100.00
5283;BME280;15376;48.540;9.268;2023-07-13T03:38:45;97490.06;;;18.12;100.00
5283;BME280;15376;48.540;9.268;2023-07-13T03:41:11;97486.44;;;18.07;100.00
5283;BME280;15376;48.540;9.268;2023-07-13T03:43:36;97479.50;;;17.87;100.00
5283;BME280;15376;48.540;9.268;2023-07-13T03:46:02;97472.00;;;17.78;100.00
5283;BME280;15376;48.540;9.268;2023-07-13T03:48:27;97498.81;;;17.96;100.00
5283;BME280;15376;48.540;9.268;2023-07-13T03:50:52;97489.69;;;17.97;100.00
5283;BME280;15376;48.540;9.268;2023-07-13T03:53:18;97516.41;;;18.22;100.00
5283;BME280;15376;48.540;9.268;2023-07-13T03:55:44;97502.00;;;18.16;100.00
5283;BME280;15376;48.540;9.268;2023-07-13T03:58:31;97529.16;;;18.26;100.00
5283;BME280;15376;48.540;9.268;2023-07-13T04:00:58;97502.91;;;18.10;100.00
5283;BME280;15376;48.540;9.268;2023-07-13T04:03:24;97536.72;;;18.18;100.00
5283;BME280;15376;48.540;9.268;2023-07-13T04:05:50;97522.31;;;18.12;100.00
5283;BME280;15376;48.540;9.268;2023-07-13T04:08:16;97510.84;;;18.05;100.00
5283;BME280;15376;48.540;9.268;2023-07-13T04:10:42;97505.00;;;17.96;100.00
5283;BME280;15376;48.540;9.268;2023-07-13T04:13:07;97515.41;;;18.05;100.00
5283;BME280;15376;48.540;9.268;2023-07-13T04:15:33;97507.56;;;18.03;100.00
5283;BME280;15376;48.540;9.268;2023-07-13T04:17:58;97485.44;;;17.78;100.00
5283;BME280;15376;48.540;9.268;2023-07-13T04:20:26;97529.78;;;17.98;100.00
5283;BME280;15376;48.540;9.268;2023-07-13T04:22:52;97555.16;;;18.14;100.00
5283;BME280;15376;48.540;9.268;2023-07-13T04:25:21;97521.34;;;17.95;100.00
5283;BME280;15376;48.540;9.268;2023-07-13T04:27:46;97554.56;;;18.12;100.00
5283;BME280;15376;48.540;9.268;2023-07-13T04:30:12;97539.00;;;18.03;100.00
5283;BME280;15376;48.540;9.268;2023-07-13T04:32:37;97546.00;;;18.04;100.00
5283;BME280;15376;48.540;9.268;2023-07-13T04:35:03;97529.28;;;17.90;100.00
5283;BME280;15376;48.540;9.268;2023-07-13T04:37:29;97536.97;;;17.86;100.00
5283;BME280;15376;48.540;9.268;2023-07-13T04:39:54;97539.59;;;17.75;100.00
5283;BME280;15376;48.540;9.268;2023-07-13T04:42:20;97537.22;;;17.66;100.00
5283;BME280;15376;48.540;9.268;2023-07-13T04:44:49;97555.09;;;17.91;100.00
5283;BME280;15376;48.540;9.268;2023-07-13T04:47:15;97540.28;;;18.00;100.00
5283;BME280;15376;48.540;9.268;2023-07-13T04:49:40;97534.19;;;17.93;100.00
5283;BME280;15376;48.540;9.268;2023-07-13T04:52:07;97542.72;;;18.02;100.00
5283;BME280;15376;48.540;9.268;2023-07-13T04:54:33;97552.47;;;18.14;100.00
5283;BME280;15376;48.540;9.268;2023-07-13T04:56:58;97563.19;;;18.32;100.00
5283;BME280;15376;48.540;9.268;2023-07-13T04:59:24;97564.47;;;18.42;100.00
5283;BME280;15376;48.540;9.268;2023-07-13T05:01:49;97562.94;;;18.46;100.00
5283;BME280;15376;48.540;9.268;2023-07-13T05:04:14;97562.13;;;18.45;100.00
5283;BME280;15376;48.540;9.268;2023-07-13T05:06:39;97537.34;;;18.31;100.00
5283;BME280;15376;48.540;9.268;2023-07-13T05:09:05;97531.59;;;18.28;100.00
5283;BME280;15376;48.540;9.268;2023-07-13T05:11:31;97549.75;;;18.32;100.00
5283;BME280;15376;48.540;9.268;2023-07-13T05:13:56;97544.00;;;18.29;100.00
5283;BME280;15376;48.540;9.268;2023-07-13T05:16:21;97474.81;;;17.83;100.00
5283;BME280;15376;48.540;9.268;2023-07-13T05:18:47;97575.25;;;18.53;100.00
5283;BME280;15376;48.540;9.268;2023-07-13T05:21:12;97563.81;;;18.58;100.00
5283;BME280;15376;48.540;9.268;2023-07-13T05:23:38;97498.63;;;18.21;100.00
5283;BME280;15376;48.540;9.268;2023-07-13T05:26:04;97574.50;;;18.64;100.00
5283;BME280;15376;48.540;9.268;2023-07-13T05:28:31;97605.97;;;18.76;100.00
5283;BME280;15376;48.540;9.268;2023-07-13T05:30:56;97583.09;;;18.55;100.00
5283;BME280;15376;48.540;9.268;2023-07-13T05:33:23;97570.81;;;18.59;100.00
5283;BME280;15376;48.540;9.268;2023-07-13T05:35:49;97560.94;;;18.71;100.00
5283;BME280;15376;48.540;9.268;2023-07-13T05:38:14;97585.84;;;19.02;100.00
5283;BME280;15376;48.540;9.268;2023-07-13T05:40:42;97603.06;;;19.12;100.00
5283;BME280;15376;48.540;9.268;2023-07-13T05:43:08;97536.31;;;18.56;100.00
5283;BME280;15376;48.540;9.268;2023-07-13T05:45:33;97577.19;;;18.76;100.00
5283;BME280;15376;48.540;9.268;2023-07-13T05:47:58;97587.50;;;18.79;100.00
5283;BME280;15376;48.540;9.268;2023-07-13T05:50:25;97598.97;;;18.98;100.00
5283;BME280;15376;48.540;9.268;2023-07-13T05:52:50;97579.88;;;18.88;100.00
5283;BME280;15376;48.540;9.268;2023-07-13T05:55:17;97611.72;;;19.03;100.00
5283;BME280;15376;48.540;9.268;2023-07-13T05:57:42;97546.19;;;18.74;100.00
5283;BME280;15376;48.540;9.268;2023-07-13T06:00:08;97592.75;;;19.09;100.00
5283;BME280;15376;48.540;9.268;2023-07-13T06:02:34;97575.69;;;19.15;100.00
5283;BME280;15376;48.540;9.268;2023-07-13T06:04:59;97569.69;;;19.25;99.73
5283;BME280;15376;48.540;9.268;2023-07-13T06:07:24;97614.53;;;19.54;96.89
5283;BME280;15376;48.540;9.268;2023-07-13T06:09:50;97619.34;;;19.52;95.19
5283;BME280;15376;48.540;9.268;2023-07-13T06:12:15;97628.81;;;19.55;92.55
5283;BME280;15376;48.540;9.268;2023-07-13T06:14:40;97620.16;;;19.53;91.23
5283;BME280;15376;48.540;9.268;2023-07-13T06:17:06;97545.44;;;19.37;87.77
5283;BME280;15376;48.540;9.268;2023-07-13T06:19:31;97615.97;;;19.85;87.48
5283;BME280;15376;48.540;9.268;2023-07-13T06:21:57;97630.06;;;20.16;83.93
5283;BME280;15376;48.540;9.268;2023-07-13T06:24:24;97638.78;;;20.35;82.85
5283;BME280;15376;48.540;9.268;2023-07-13T06:26:49;97602.22;;;20.27;81.82
5283;BME280;15376;48.540;9.268;2023-07-13T06:29:14;97606.69;;;20.21;78.62
5283;BME280;15376;48.540;9.268;2023-07-13T06:31:40;97604.88;;;20.10;77.61
5283;BME280;15376;48.540;9.268;2023-07-13T06:34:05;97626.16;;;20.23;77.08
5283;BME280;15376;48.540;9.268;2023-07-13T06:36:30;97635.94;;;20.41;78.36
5283;BME280;15376;48.540;9.268;2023-07-13T06:38:56;97644.41;;;20.61;78.49
5283;BME280;15376;48.540;9.268;2023-07-13T06:41:22;97601.53;;;20.48;77.58
5283;BME280;15376;48.540;9.268;2023-07-13T06:43:51;97618.25;;;20.62;71.75
5283;BME280;15376;48.540;9.268;2023-07-13T06:46:16;97630.09;;;20.61;71.69
5283;BME280;15376;48.540;9.268;2023-07-13T06:48:42;97643.69;;;20.83;70.40
5283;BME280;15376;48.540;9.268;2023-07-13T06:51:07;97631.19;;;20.77;71.83
5283;BME280;15376;48.540;9.268;2023-07-13T06:53:33;97651.22;;;20.97;70.81
5283;BME280;15376;48.540;9.268;2023-07-13T06:55:58;97652.47;;;21.23;67.92
5283;BME280;15376;48.540;9.268;2023-07-13T06:58:24;97625.22;;;20.91;63.69
5283;BME280;15376;48.540;9.268;2023-07-13T07:00:52;97625.28;;;21.13;65.19
5283;BME280;15376;48.540;9.268;2023-07-13T07:03:17;97649.19;;;21.38;63.74
5283;BME280;15376;48.540;9.268;2023-07-13T07:05:43;97651.41;;;21.41;63.42
5283;BME280;15376;48.540;9.268;2023-07-13T07:08:08;97662.94;;;21.53;61.93
5283;BME280;15376;48.540;9.268;2023-07-13T07:10:35;97658.66;;;21.57;61.76
5283;BME280;15376;48.540;9.268;2023-07-13T07:13:01;97665.75;;;21.63;59.32
5283;BME280;15376;48.540;9.268;2023-07-13T07:15:26;97658.47;;;21.64;60.66
5283;BME280;15376;48.540;9.268;2023-07-13T07:17:52;97647.28;;;21.55;62.94
5283;BME280;15376;48.540;9.268;2023-07-13T07:20:17;97663.84;;;21.81;61.52
5283;BME280;15376;48.540;9.268;2023-07-13T07:22:43;97639.25;;;21.82;59.03
5283;BME280;15376;48.540;9.268;2023-07-13T07:25:08;97670.84;;;21.99;58.66
5283;BME280;15376;48.540;9.268;2023-07-13T07:27:34;97677.47;;;22.08;58.01
5283;BME280;15376;48.540;9.268;2023-07-13T07:29:59;97627.13;;;22.07;56.46
5283;BME280;15376;48.540;9.268;2023-07-13T07:32:25;97632.03;;;22.10;55.01
5283;BME280;15376;48.540;9.268;2023-07-13T07:34:50;97630.97;;;21.89;55.56
5283;BME280;15376;48.540;9.268;2023-07-13T07:37:16;97664.22;;;21.89;54.53
5283;BME280;15376;48.540;9.268;2023-07-13T07:39:43;97672.03;;;21.86;54.02
5283;BME280;15376;48.540;9.268;2023-07-13T07:42:08;97675.75;;;22.02;56.08
5283;BME280;15376;48.540;9.268;2023-07-13T07:44:34;97638.94;;;21.79;56.02
5283;BME280;15376;48.540;9.268;2023-07-13T07:47:00;97626.13;;;21.91;56.81
5283;BME280;15376;48.540;9.268;2023-07-13T07:49:26;97662.84;;;22.31;55.85
5283;BME280;15376;48.540;9.268;2023-07-13T07:51:52;97659.63;;;21.90;59.18
5283;BME280;15376;48.540;9.268;2023-07-13T07:54:17;97687.72;;;22.06;54.88
5283;BME280;15376;48.540;9.268;2023-07-13T07:56:43;97676.84;;;21.84;60.01
5283;BME280;15376;48.540;9.268;2023-07-13T07:59:08;97663.97;;;21.91;59.23
5283;BME280;15376;48.540;9.268;2023-07-13T08:01:34;97686.06;;;22.05;59.54
5283;BME280;15376;48.540;9.268;2023-07-13T08:03:59;97689.50;;;22.00;56.29
5283;BME280;15376;48.540;9.268;2023-07-13T08:06:24;97684.63;;;21.97;57.50
5283;BME280;15376;48.540;9.268;2023-07-13T08:08:50;97680.84;;;21.98;58.83
5283;BME280;15376;48.540;9.268;2023-07-13T08:11:16;97633.97;;;21.92;57.54
5283;BME280;15376;48.540;9.268;2023-07-13T08:13:42;97684.00;;;22.12;57.69
5283;BME280;15376;48.540;9.268;2023-07-13T08:16:07;97637.38;;;22.05;53.80
5283;BME280;15376;48.540;9.268;2023-07-13T08:18:33;97683.88;;;22.23;55.21
5283;BME280;15376;48.540;9.268;2023-07-13T08:20:58;97651.72;;;22.05;52.13
5283;BME280;15376;48.540;9.268;2023-07-13T08:23:27;97676.25;;;22.20;53.27
5283;BME280;15376;48.540;9.268;2023-07-13T08:25:53;97681.22;;;22.28;52.87
5283;BME280;15376;48.540;9.268;2023-07-13T08:28:20;97672.41;;;22.38;53.55
5283;BME280;15376;48.540;9.268;2023-07-13T08:30:46;97683.59;;;22.47;51.68
5283;BME280;15376;48.540;9.268;2023-07-13T08:33:18;97674.91;;;22.45;52.27
5283;BME280;15376;48.540;9.268;2023-07-13T08:35:48;97674.91;;;22.45;51.86
5283;BME280;15376;48.540;9.268;2023-07-13T08:38:13;97664.03;;;22.40;52.61
5283;BME280;15376;48.540;9.268;2023-07-13T08:40:39;97687.72;;;22.27;51.63
5283;BME280;15376;48.540;9.268;2023-07-13T08:43:09;97670.56;;;22.44;53.02
5283;BME280;15376;48.540;9.268;2023-07-13T08:45:47;97640.47;;;22.40;51.33
5283;BME280;15376;48.540;9.268;2023-07-13T08:50:57;97679.13;;;22.84;52.70
5283;BME280;15376;48.540;9.268;2023-07-13T08:53:23;97673.09;;;22.77;52.34
5283;BME280;15376;48.540;9.268;2023-07-13T08:55:57;97674.31;;;22.91;51.32
5283;BME280;15376;48.540;9.268;2023-07-13T08:58:25;97680.75;;;22.85;50.00
5283;BME280;15376;48.540;9.268;2023-07-13T09:01:10;97676.06;;;22.76;52.12
5283;BME280;15376;48.540;9.268;2023-07-13T09:04:30;97661.03;;;22.63;51.68
5283;BME280;15376;48.540;9.268;2023-07-13T09:06:47;97684.75;;;22.78;49.42
5283;BME280;15376;48.540;9.268;2023-07-13T09:12:14;97683.81;;;22.94;50.59
5283;BME280;15376;48.540;9.268;2023-07-13T09:14:45;97685.03;;;23.08;50.48
5283;BME280;15376;48.540;9.268;2023-07-13T09:17:18;97683.00;;;23.25;51.06
5283;BME280;15376;48.540;9.268;2023-07-13T09:19:51;97664.91;;;23.36;51.32
5283;BME280;15376;48.540;9.268;2023-07-13T09:22:20;97679.22;;;23.58;49.41
5283;BME280;15376;48.540;9.268;2023-07-13T09:24:50;97672.19;;;23.68;47.83
5283;BME280;15376;48.540;9.268;2023-07-13T09:27:23;97678.78;;;23.82;49.39
5283;BME280;15376;48.540;9.268;2023-07-13T09:30:21;97673.53;;;24.17;48.67
5283;BME280;15376;48.540;9.268;2023-07-13T09:32:52;97686.13;;;24.34;47.10
5283;BME280;15376;48.540;9.268;2023-07-13T09:35:25;97611.44;;;23.64;46.56
5283;BME280;15376;48.540;9.268;2023-07-13T09:37:57;97684.88;;;23.99;47.19
5283;BME280;15376;48.540;9.268;2023-07-13T09:40:49;97672.72;;;24.22;47.15
5283;BME280;15376;48.540;9.268;2023-07-13T09:43:18;97623.84;;;24.12;46.20
5283;BME280;15376;48.540;9.268;2023-07-13T09:45:46;97654.06;;;24.41;47.14
5283;BME280;15376;48.540;9.268;2023-07-13T09:48:14;97679.16;;;24.83;46.62
5283;BME280;15376;48.540;9.268;2023-07-13T09:50:40;97660.69;;;24.85;46.80
5283;BME280;15376;48.540;9.268;2023-07-13T09:53:15;97674.31;;;25.21;45.11
5283;BME280;15376;48.540;9.268;2023-07-13T09:55:43;97673.47;;;25.20;44.71
5283;BME280;15376;48.540;9.268;2023-07-13T09:58:17;97685.72;;;25.48;42.75
5283;BME280;15376;48.540;9.268;2023-07-13T10:00:57;97687.34;;;25.54;42.23
5283;BME280;15376;48.540;9.268;2023-07-13T10:03:31;97684.31;;;25.86;41.11
5283;BME280;15376;48.540;9.268;2023-07-13T10:06:14;97684.03;;;25.88;40.47
5283;BME280;15376;48.540;9.268;2023-07-13T10:08:39;97656.63;;;25.44;40.46
5283;BME280;15376;48.540;9.268;2023-07-13T10:11:11;97673.13;;;25.98;42.75
5283;BME280;15376;48.540;9.268;2023-07-13T10:13:42;97691.63;;;25.96;38.78
5283;BME280;15376;48.540;9.268;2023-07-13T10:16:09;97688.06;;;26.01;40.98
5283;BME280;15376;48.540;9.268;2023-07-13T10:18:41;97665.38;;;26.31;39.60
5283;BME280;15376;48.540;9.268;2023-07-13T10:21:17;97674.28;;;26.90;39.82
5283;BME280;15376;48.540;9.268;2023-07-13T10:23:46;97686.69;;;27.12;36.32
5283;BME280;15376;48.540;9.268;2023-07-13T10:26:17;97687.94;;;26.85;37.10
5283;BME280;15376;48.540;9.268;2023-07-13T10:28:45;97683.44;;;26.66;38.23
5283;BME280;15376;48.540;9.268;2023-07-13T10:31:15;97662.50;;;26.56;37.87
5283;BME280;15376;48.540;9.268;2023-07-13T10:33:41;97674.19;;;27.69;37.54
5283;BME280;15376;48.540;9.268;2023-07-13T10:38:38;97636.25;;;30.29;34.34
5283;BME280;15376;48.540;9.268;2023-07-13T10:41:06;97681.16;;;31.19;32.57
5283;BME280;15376;48.540;9.268;2023-07-13T10:43:35;97677.63;;;31.27;31.40
5283;BME280;15376;48.540;9.268;2023-07-13T10:46:04;97683.41;;;31.70;30.42
5283;BME280;15376;48.540;9.268;2023-07-13T10:48:31;97689.09;;;31.06;30.53
5283;BME280;15376;48.540;9.268;2023-07-13T10:51:00;97632.28;;;31.52;30.86
5283;BME280;15376;48.540;9.268;2023-07-13T10:53:32;97655.81;;;31.75;29.29
5283;BME280;15376;48.540;9.268;2023-07-13T10:56:00;97687.47;;;31.72;28.36
5283;BME280;15376;48.540;9.268;2023-07-13T10:58:40;97635.22;;;31.33;31.31
5283;BME280;15376;48.540;9.268;2023-07-13T11:03:37;97665.50;;;32.12;29.28
5283;BME280;15376;48.540;9.268;2023-07-13T11:06:16;97641.59;;;33.68;29.55
5283;BME280;15376;48.540;9.268;2023-07-13T11:18:44;97659.22;;;35.68;24.18
5283;BME280;15376;48.540;9.268;2023-07-13T11:21:16;97649.84;;;35.93;26.17
5283;BME280;15376;48.540;9.268;2023-07-13T11:23:43;97659.06;;;35.97;23.84
5283;BME280;15376;48.540;9.268;2023-07-13T11:26:42;97608.31;;;35.69;22.52
5283;BME280;15376;48.540;9.268;2023-07-13T11:31:43;97644.97;;;36.51;23.89
5283;BME280;15376;48.540;9.268;2023-07-13T11:34:18;97638.50;;;36.71;23.97
5283;BME280;15376;48.540;9.268;2023-07-13T11:36:47;97647.28;;;34.89;24.43
5283;BME280;15376;48.540;9.268;2023-07-13T11:41:53;97645.06;;;31.65;28.51
5283;BME280;15376;48.540;9.268;2023-07-13T11:44:22;97585.81;;;30.88;28.38
5283;BME280;15376;48.540;9.268;2023-07-13T11:46:56;97638.22;;;31.76;26.58
5283;BME280;15376;48.540;9.268;2023-07-13T11:49:28;97627.69;;;32.17;28.95
5283;BME280;15376;48.540;9.268;2023-07-13T11:51:54;97638.16;;;32.98;26.53
5283;BME280;15376;48.540;9.268;2023-07-13T11:54:43;97649.28;;;34.00;24.86
5283;BME280;15376;48.540;9.268;2023-07-13T11:57:51;97638.28;;;34.80;25.23
5283;BME280;15376;48.540;9.268;2023-07-13T12:00:23;97631.19;;;35.90;25.07
5283;BME280;15376;48.540;9.268;2023-07-13T12:02:53;97636.69;;;36.76;24.07
5283;BME280;15376;48.540;9.268;2023-07-13T12:05:19;97604.63;;;35.77;23.48
5283;BME280;15376;48.540;9.268;2023-07-13T12:07:50;97608.50;;;33.85;25.45
5283;BME280;15376;48.540;9.268;2023-07-13T12:10:28;97639.88;;;32.34;25.40
5283;BME280;15376;48.540;9.268;2023-07-13T12:13:00;97633.69;;;32.20;28.66
5283;BME280;15376;48.540;9.268;2023-07-13T12:18:28;97637.97;;;34.52;25.28
5283;BME280;15376;48.540;9.268;2023-07-13T12:20:56;97636.59;;;36.11;22.46
5283;BME280;15376;48.540;9.268;2023-07-13T12:23:29;97632.78;;;36.03;23.20
5283;BME280;15376;48.540;9.268;2023-07-13T12:25:57;97643.50;;;34.23;24.07
5283;BME280;15376;48.540;9.268;2023-07-13T12:30:59;97638.47;;;33.14;26.43
5283;BME280;15376;48.540;9.268;2023-07-13T12:33:28;97624.31;;;35.18;25.71
5283;BME280;15376;48.540;9.268;2023-07-13T12:35:54;97632.78;;;36.03;25.19
5283;BME280;15376;48.540;9.268;2023-07-13T12:38:21;97603.59;;;34.70;23.92
5283;BME280;15376;48.540;9.268;2023-07-13T12:40:49;97638.53;;;33.61;24.64
5283;BME280;15376;48.540;9.268;2023-07-13T12:43:16;97611.63;;;32.85;28.11
5283;BME280;15376;48.540;9.268;2023-07-13T12:45:59;97624.66;;;34.25;25.86
5283;BME280;15376;48.540;9.268;2023-07-13T12:48:25;97630.66;;;34.35;24.75
5283;BME280;15376;48.540;9.268;2023-07-13T12:50:53;97626.50;;;34.92;24.45
5283;BME280;15376;48.540;9.268;2023-07-13T12:53:22;97619.59;;;34.56;25.19
5283;BME280;15376;48.540;9.268;2023-07-13T12:55:55;97626.84;;;32.91;24.05
5283;BME280;15376;48.540;9.268;2023-07-13T12:58:30;97634.41;;;33.20;24.21
5283;BME280;15376;48.540;9.268;2023-07-13T13:00:59;97641.34;;;33.52;24.42
5283;BME280;15376;48.540;9.268;2023-07-13T13:03:31;97592.28;;;34.42;24.83
5283;BME280;15376;48.540;9.268;2023-07-13T13:06:03;97621.38;;;34.61;23.65
5283;BME280;15376;48.540;9.268;2023-07-13T13:08:34;97632.47;;;33.93;22.73
5283;BME280;15376;48.540;9.268;2023-07-13T13:11:03;97624.56;;;33.83;22.74
5283;BME280;15376;48.540;9.268;2023-07-13T13:13:28;97623.94;;;34.07;23.98
5283;BME280;15376;48.540;9.268;2023-07-13T13:15:53;97621.78;;;35.25;24.06
5283;BME280;15376;48.540;9.268;2023-07-13T13:18:21;97620.22;;;36.06;21.45
5283;BME280;15376;48.540;9.268;2023-07-13T13:20:50;97627.94;;;36.00;20.60
5283;BME280;15376;48.540;9.268;2023-07-13T13:23:19;97621.94;;;36.23;21.01
5283;BME280;15376;48.540;9.268;2023-07-13T13:25:46;97620.28;;;36.58;20.38
5283;BME280;15376;48.540;9.268;2023-07-13T13:28:18;97619.06;;;36.96;19.49
5283;BME280;15376;48.540;9.268;2023-07-13T13:30:46;97617.59;;;35.07;22.11
5283;BME280;15376;48.540;9.268;2023-07-13T13:33:15;97615.69;;;33.60;21.58
5283;BME280;15376;48.540;9.268;2023-07-13T13:35:41;97610.13;;;32.53;25.49
5283;BME280;15376;48.540;9.268;2023-07-13T13:38:14;97541.56;;;31.34;27.76
5283;BME280;15376;48.540;9.268;2023-07-13T13:40:42;97603.44;;;33.49;26.33
5283;BME280;15376;48.540;9.268;2023-07-13T13:43:34;97599.28;;;34.61;24.75
5283;BME280;15376;48.540;9.268;2023-07-13T13:45:59;97607.72;;;33.12;23.21